Marion, IL

5:41 PM CDT on May 25, 2015 (GMT -0500)
WB0VTM - HAM RADIO | | Change Station
CLOSE
Current Station
Personal Weather Station
Location: Marion, IL
Elevation: 492 ft
Nearby Weather Stations

Elev 492 ft 37.72 °N, 88.95 °W | Updated 8 minutes ago

Mostly Cloudy
Mostly Cloudy
81.3 °F
Feels Like 86 °F
N
2.2
Wind Variable Wind from SSW

Today
High -- | Low -- °F
--% Chance of Precip.
Yesterday
High -- | Low -- °F
Precip. -- in
5:38 AM 8:06 PM
First Quarter, 52% visible
Pressure 30.03 in
Visibility 20.0 miles
Clouds Mostly Cloudy 2100 ft
Mostly Cloudy 3000 ft
Heat Index 86 °F
Dew Point 73 °F
Humidity 75%
Rainfall 0.04 in
Snow Depth Not available.
UV 2 out of 12
Pollen 1.90 out of 12
Air Quality Not available.
Flu Activity Sporadic
METAR KMWA 252153Z 19010KT 20SM BKN021 BKN030 26/21 A3003

More Conditions Fewer Conditions

Pressure 30.03 in
Visibility 20.0 miles
Clouds Mostly Cloudy 2100 ft
Mostly Cloudy 3000 ft
Heat Index 86 °F
Dew Point 73 °F
Humidity 75%
Rainfall 0.04 in
Snow Depth Not available.
UV 2 out of 12
Pollen 1.90 out of 12
Air Quality Not available.
Flu Activity Sporadic
METAR KMWA 252153Z 19010KT 20SM BKN021 BKN030 26/21 A3003

More Conditions Fewer Conditions

10-Day Weather Forecast

Almanac

Astronomy

May. 25, 2015 Rise Set
Actual Time
Civil Twilight
Nautical Twilight
Astronomical Twilight
Moon
Length of Visible Light
Length of Day
Tomorrow will be .
, % of the Moon is Illuminated

Today's Extremes

State Highs State Lows

Community

WunderPhotos

Upload Photos

1,824,153 photos uploaded!

WunderBlogs® & News

Nearby

Air Quality

  Air Quality AQ Index Pollutant
Not available.

Snow Depth

Station Depth Elevation

Earthquake Activity

City Distance Mag. Time & Date
Minimum magnitude displayed is 2.5.

Coastal Water Temperatures

Place Temperature

Stations

Nearby Weather Stations

Station Location Temp. Windchill Dew Point Humidity Wind Precip. Elev Updated Type